sensor_id;sensor_type;location;lat;lon;timestamp;P1;durP1;ratioP1;P2;durP2;ratioP2
239;SDS011;104;53.590;10.004;2023-04-09T00:00:08;30.10;;;15.07;;
239;SDS011;104;53.590;10.004;2023-04-09T00:02:36;31.03;;;15.27;;
239;SDS011;104;53.590;10.004;2023-04-09T00:05:03;28.93;;;14.97;;
239;SDS011;104;53.590;10.004;2023-04-09T00:07:31;29.97;;;14.80;;
239;SDS011;104;53.590;10.004;2023-04-09T00:09:59;29.83;;;15.27;;
239;SDS011;104;53.590;10.004;2023-04-09T00:12:26;26.10;;;14.60;;
239;SDS011;104;53.590;10.004;2023-04-09T00:14:54;30.60;;;16.00;;
239;SDS011;104;53.590;10.004;2023-04-09T00:17:21;32.87;;;15.93;;
239;SDS011;104;53.590;10.004;2023-04-09T00:19:48;29.33;;;15.00;;
239;SDS011;104;53.590;10.004;2023-04-09T00:22:15;32.07;;;15.20;;
239;SDS011;104;53.590;10.004;2023-04-09T00:24:42;33.30;;;15.90;;
239;SDS011;104;53.590;10.004;2023-04-09T00:27:11;31.10;;;15.27;;
239;SDS011;104;53.590;10.004;2023-04-09T00:29:38;28.90;;;15.10;;
239;SDS011;104;53.590;10.004;2023-04-09T00:32:05;29.03;;;15.43;;
239;SDS011;104;53.590;10.004;2023-04-09T00:34:32;30.10;;;15.30;;
239;SDS011;104;53.590;10.004;2023-04-09T00:36:59;39.40;;;15.23;;
239;SDS011;104;53.590;10.004;2023-04-09T00:39:26;29.87;;;15.30;;
239;SDS011;104;53.590;10.004;2023-04-09T00:41:56;28.43;;;15.83;;
239;SDS011;104;53.590;10.004;2023-04-09T00:44:25;32.97;;;15.53;;
239;SDS011;104;53.590;10.004;2023-04-09T00:46:52;31.50;;;15.13;;
239;SDS011;104;53.590;10.004;2023-04-09T00:49:20;28.47;;;14.53;;
239;SDS011;104;53.590;10.004;2023-04-09T00:51:48;31.10;;;15.33;;
239;SDS011;104;53.590;10.004;2023-04-09T00:54:15;26.60;;;14.20;;
239;SDS011;104;53.590;10.004;2023-04-09T00:56:42;26.97;;;14.80;;
239;SDS011;104;53.590;10.004;2023-04-09T00:59:10;34.27;;;16.73;;
239;SDS011;104;53.590;10.004;2023-04-09T01:01:38;33.87;;;15.70;;
239;SDS011;104;53.590;10.004;2023-04-09T01:04:05;29.37;;;15.80;;
239;SDS011;104;53.590;10.004;2023-04-09T01:06:35;28.83;;;15.63;;
239;SDS011;104;53.590;10.004;2023-04-09T01:09:09;33.93;;;16.60;;
239;SDS011;104;53.590;10.004;2023-04-09T01:11:45;34.60;;;15.70;;
239;SDS011;104;53.590;10.004;2023-04-09T01:14:23;40.67;;;14.47;;
239;SDS011;104;53.590;10.004;2023-04-09T01:16:59;33.90;;;15.93;;
239;SDS011;104;53.590;10.004;2023-04-09T01:19:33;36.83;;;16.10;;
239;SDS011;104;53.590;10.004;2023-04-09T01:22:09;33.97;;;16.57;;
239;SDS011;104;53.590;10.004;2023-04-09T01:24:59;37.77;;;16.60;;
239;SDS011;104;53.590;10.004;2023-04-09T01:27:33;32.53;;;15.17;;
239;SDS011;104;53.590;10.004;2023-04-09T01:30:09;30.80;;;15.23;;
239;SDS011;104;53.590;10.004;2023-04-09T01:32:38;38.10;;;17.07;;
239;SDS011;104;53.590;10.004;2023-04-09T01:35:07;34.10;;;15.87;;
239;SDS011;104;53.590;10.004;2023-04-09T01:37:35;30.53;;;15.67;;
239;SDS011;104;53.590;10.004;2023-04-09T01:40:04;33.77;;;16.20;;
239;SDS011;104;53.590;10.004;2023-04-09T01:42:32;37.07;;;16.07;;
239;SDS011;104;53.590;10.004;2023-04-09T01:45:01;35.10;;;16.30;;
239;SDS011;104;53.590;10.004;2023-04-09T01:47:32;33.43;;;17.40;;
239;SDS011;104;53.590;10.004;2023-04-09T01:49:59;34.10;;;17.37;;
239;SDS011;104;53.590;10.004;2023-04-09T01:52:27;32.27;;;15.47;;
239;SDS011;104;53.590;10.004;2023-04-09T01:54:55;31.80;;;16.03;;
239;SDS011;104;53.590;10.004;2023-04-09T01:57:22;29.97;;;15.93;;
239;SDS011;104;53.590;10.004;2023-04-09T01:59:49;33.40;;;16.97;;
239;SDS011;104;53.590;10.004;2023-04-09T02:02:16;32.33;;;17.00;;
239;SDS011;104;53.590;10.004;2023-04-09T02:04:51;33.20;;;16.10;;
239;SDS011;104;53.590;10.004;2023-04-09T02:07:23;37.20;;;17.50;;
239;SDS011;104;53.590;10.004;2023-04-09T02:10:00;35.07;;;16.50;;
239;SDS011;104;53.590;10.004;2023-04-09T02:12:28;39.40;;;18.00;;
239;SDS011;104;53.590;10.004;2023-04-09T02:14:58;43.60;;;18.13;;
239;SDS011;104;53.590;10.004;2023-04-09T02:17:26;34.80;;;16.53;;
239;SDS011;104;53.590;10.004;2023-04-09T02:19:55;33.60;;;16.70;;
239;SDS011;104;53.590;10.004;2023-04-09T02:22:21;34.03;;;16.60;;
239;SDS011;104;53.590;10.004;2023-04-09T02:24:49;37.23;;;17.60;;
239;SDS011;104;53.590;10.004;2023-04-09T02:27:15;32.80;;;17.17;;
239;SDS011;104;53.590;10.004;2023-04-09T02:29:42;30.47;;;15.60;;
239;SDS011;104;53.590;10.004;2023-04-09T02:32:09;34.73;;;16.90;;
239;SDS011;104;53.590;10.004;2023-04-09T02:34:36;32.73;;;16.07;;
239;SDS011;104;53.590;10.004;2023-04-09T02:37:05;35.03;;;15.83;;
239;SDS011;104;53.590;10.004;2023-04-09T02:39:32;33.97;;;17.33;;
239;SDS011;104;53.590;10.004;2023-04-09T02:41:59;35.20;;;16.63;;
239;SDS011;104;53.590;10.004;2023-04-09T02:44:26;33.93;;;16.70;;
239;SDS011;104;53.590;10.004;2023-04-09T02:46:53;35.10;;;16.70;;
239;SDS011;104;53.590;10.004;2023-04-09T02:49:20;40.57;;;18.07;;
239;SDS011;104;53.590;10.004;2023-04-09T02:51:47;33.63;;;15.23;;
239;SDS011;104;53.590;10.004;2023-04-09T02:54:16;35.63;;;16.43;;
239;SDS011;104;53.590;10.004;2023-04-09T02:56:42;36.03;;;15.77;;
239;SDS011;104;53.590;10.004;2023-04-09T02:59:10;32.70;;;15.47;;
239;SDS011;104;53.590;10.004;2023-04-09T03:01:37;37.80;;;17.07;;
239;SDS011;104;53.590;10.004;2023-04-09T03:04:04;38.33;;;16.83;;
239;SDS011;104;53.590;10.004;2023-04-09T03:06:31;39.63;;;17.57;;
239;SDS011;104;53.590;10.004;2023-04-09T03:08:58;42.30;;;18.93;;
239;SDS011;104;53.590;10.004;2023-04-09T03:11:27;50.00;;;18.90;;
239;SDS011;104;53.590;10.004;2023-04-09T03:13:54;35.87;;;16.40;;
239;SDS011;104;53.590;10.004;2023-04-09T03:16:23;38.50;;;17.33;;
239;SDS011;104;53.590;10.004;2023-04-09T03:18:50;36.63;;;16.90;;
239;SDS011;104;53.590;10.004;2023-04-09T03:21:17;36.97;;;17.27;;
239;SDS011;104;53.590;10.004;2023-04-09T03:23:45;34.60;;;16.67;;
239;SDS011;104;53.590;10.004;2023-04-09T03:26:12;39.13;;;17.80;;
239;SDS011;104;53.590;10.004;2023-04-09T03:28:40;37.33;;;17.03;;
239;SDS011;104;53.590;10.004;2023-04-09T03:31:08;41.17;;;17.73;;
239;SDS011;104;53.590;10.004;2023-04-09T03:33:35;38.90;;;17.50;;
239;SDS011;104;53.590;10.004;2023-04-09T03:36:02;35.07;;;16.53;;
239;SDS011;104;53.590;10.004;2023-04-09T03:38:29;36.17;;;16.90;;
239;SDS011;104;53.590;10.004;2023-04-09T03:40:57;39.00;;;17.90;;
239;SDS011;104;53.590;10.004;2023-04-09T03:43:24;35.20;;;16.43;;
239;SDS011;104;53.590;10.004;2023-04-09T03:45:53;35.77;;;17.40;;
239;SDS011;104;53.590;10.004;2023-04-09T03:48:20;34.10;;;16.77;;
239;SDS011;104;53.590;10.004;2023-04-09T03:50:47;38.10;;;18.27;;
239;SDS011;104;53.590;10.004;2023-04-09T03:53:14;37.10;;;17.50;;
239;SDS011;104;53.590;10.004;2023-04-09T03:55:41;43.60;;;19.30;;
239;SDS011;104;53.590;10.004;2023-04-09T03:58:09;38.20;;;17.80;;
239;SDS011;104;53.590;10.004;2023-04-09T04:00:36;36.53;;;17.40;;
239;SDS011;104;53.590;10.004;2023-04-09T04:03:05;39.00;;;17.87;;
239;SDS011;104;53.590;10.004;2023-04-09T04:05:32;38.40;;;18.50;;
239;SDS011;104;53.590;10.004;2023-04-09T04:07:59;36.70;;;17.87;;
239;SDS011;104;53.590;10.004;2023-04-09T04:10:26;38.20;;;17.73;;
239;SDS011;104;53.590;10.004;2023-04-09T04:12:54;44.97;;;18.90;;
239;SDS011;104;53.590;10.004;2023-04-09T04:15:21;43.90;;;19.30;;
239;SDS011;104;53.590;10.004;2023-04-09T04:17:48;43.07;;;17.90;;
239;SDS011;104;53.590;10.004;2023-04-09T04:20:17;42.73;;;17.80;;
239;SDS011;104;53.590;10.004;2023-04-09T04:22:44;37.23;;;17.80;;
239;SDS011;104;53.590;10.004;2023-04-09T04:25:11;40.03;;;18.10;;
239;SDS011;104;53.590;10.004;2023-04-09T04:27:42;37.30;;;17.03;;
239;SDS011;104;53.590;10.004;2023-04-09T04:30:09;37.97;;;18.60;;
239;SDS011;104;53.590;10.004;2023-04-09T04:32:37;34.70;;;16.50;;
239;SDS011;104;53.590;10.004;2023-04-09T04:35:04;35.93;;;16.67;;
239;SDS011;104;53.590;10.004;2023-04-09T04:37:33;34.47;;;17.67;;
239;SDS011;104;53.590;10.004;2023-04-09T04:40:00;48.93;;;20.03;;
239;SDS011;104;53.590;10.004;2023-04-09T04:42:28;57.37;;;23.67;;
239;SDS011;104;53.590;10.004;2023-04-09T04:44:55;54.23;;;23.80;;
239;SDS011;104;53.590;10.004;2023-04-09T04:47:22;56.10;;;25.30;;
239;SDS011;104;53.590;10.004;2023-04-09T04:49:49;46.60;;;20.70;;
239;SDS011;104;53.590;10.004;2023-04-09T04:52:17;48.63;;;19.53;;
239;SDS011;104;53.590;10.004;2023-04-09T04:54:45;41.97;;;19.30;;
239;SDS011;104;53.590;10.004;2023-04-09T04:57:12;39.23;;;18.03;;
239;SDS011;104;53.590;10.004;2023-04-09T04:59:40;40.67;;;17.33;;
239;SDS011;104;53.590;10.004;2023-04-09T05:02:07;41.53;;;18.53;;
239;SDS011;104;53.590;10.004;2023-04-09T05:04:35;40.80;;;18.47;;
239;SDS011;104;53.590;10.004;2023-04-09T05:07:02;38.93;;;18.23;;
239;SDS011;104;53.590;10.004;2023-04-09T05:09:29;45.43;;;19.97;;
239;SDS011;104;53.590;10.004;2023-04-09T05:11:58;41.20;;;18.20;;
239;SDS011;104;53.590;10.004;2023-04-09T05:14:25;41.87;;;18.60;;
239;SDS011;104;53.590;10.004;2023-04-09T05:16:52;36.67;;;17.70;;
239;SDS011;104;53.590;10.004;2023-04-09T05:19:19;40.50;;;18.07;;
239;SDS011;104;53.590;10.004;2023-04-09T05:21:46;43.37;;;19.10;;
239;SDS011;104;53.590;10.004;2023-04-09T05:24:14;40.87;;;18.33;;
239;SDS011;104;53.590;10.004;2023-04-09T05:26:41;40.40;;;19.10;;
239;SDS011;104;53.590;10.004;2023-04-09T05:29:10;41.90;;;18.60;;
239;SDS011;104;53.590;10.004;2023-04-09T05:31:37;43.37;;;19.23;;
239;SDS011;104;53.590;10.004;2023-04-09T05:34:05;41.20;;;20.17;;
239;SDS011;104;53.590;10.004;2023-04-09T05:36:32;42.67;;;19.77;;
239;SDS011;104;53.590;10.004;2023-04-09T05:38:59;50.33;;;20.20;;
239;SDS011;104;53.590;10.004;2023-04-09T05:41:27;50.30;;;22.00;;
239;SDS011;104;53.590;10.004;2023-04-09T05:43:54;41.90;;;19.73;;
239;SDS011;104;53.590;10.004;2023-04-09T05:46:23;51.90;;;21.73;;
239;SDS011;104;53.590;10.004;2023-04-09T05:48:50;48.83;;;20.67;;
239;SDS011;104;53.590;10.004;2023-04-09T05:51:17;43.10;;;19.20;;
239;SDS011;104;53.590;10.004;2023-04-09T05:53:44;38.97;;;19.40;;
239;SDS011;104;53.590;10.004;2023-04-09T05:56:12;46.40;;;20.53;;
239;SDS011;104;53.590;10.004;2023-04-09T05:58:40;46.50;;;21.10;;
239;SDS011;104;53.590;10.004;2023-04-09T06:01:07;48.83;;;21.30;;
239;SDS011;104;53.590;10.004;2023-04-09T06:03:36;44.30;;;20.27;;
239;SDS011;104;53.590;10.004;2023-04-09T06:06:03;45.33;;;21.30;;
239;SDS011;104;53.590;10.004;2023-04-09T06:08:31;47.57;;;21.47;;
239;SDS011;104;53.590;10.004;2023-04-09T06:10:58;44.17;;;20.57;;
239;SDS011;104;53.590;10.004;2023-04-09T06:13:25;50.83;;;22.63;;
239;SDS011;104;53.590;10.004;2023-04-09T06:15:52;47.23;;;21.93;;
239;SDS011;104;53.590;10.004;2023-04-09T06:18:20;41.37;;;20.73;;
239;SDS011;104;53.590;10.004;2023-04-09T06:20:48;48.83;;;22.40;;
239;SDS011;104;53.590;10.004;2023-04-09T06:23:16;43.07;;;21.43;;
239;SDS011;104;53.590;10.004;2023-04-09T06:25:43;45.93;;;21.70;;
239;SDS011;104;53.590;10.004;2023-04-09T06:28:10;50.40;;;22.23;;
239;SDS011;104;53.590;10.004;2023-04-09T06:30:37;48.00;;;23.00;;
239;SDS011;104;53.590;10.004;2023-04-09T06:33:05;51.40;;;22.70;;
239;SDS011;104;53.590;10.004;2023-04-09T06:35:32;43.90;;;20.50;;
239;SDS011;104;53.590;10.004;2023-04-09T06:38:01;47.13;;;21.70;;
239;SDS011;104;53.590;10.004;2023-04-09T06:40:28;48.20;;;20.00;;
239;SDS011;104;53.590;10.004;2023-04-09T06:42:55;47.83;;;20.77;;
239;SDS011;104;53.590;10.004;2023-04-09T06:45:23;42.60;;;21.60;;
239;SDS011;104;53.590;10.004;2023-04-09T06:47:50;47.13;;;20.77;;
239;SDS011;104;53.590;10.004;2023-04-09T06:50:17;49.40;;;22.47;;
239;SDS011;104;53.590;10.004;2023-04-09T06:52:45;46.53;;;21.73;;
239;SDS011;104;53.590;10.004;2023-04-09T06:55:13;48.97;;;22.30;;
239;SDS011;104;53.590;10.004;2023-04-09T06:57:40;53.47;;;24.27;;
239;SDS011;104;53.590;10.004;2023-04-09T07:00:08;59.03;;;25.30;;
239;SDS011;104;53.590;10.004;2023-04-09T07:02:36;51.53;;;23.17;;
239;SDS011;104;53.590;10.004;2023-04-09T07:05:03;54.63;;;23.70;;
239;SDS011;104;53.590;10.004;2023-04-09T07:07:31;50.43;;;22.70;;
239;SDS011;104;53.590;10.004;2023-04-09T07:09:58;56.80;;;25.37;;
239;SDS011;104;53.590;10.004;2023-04-09T07:12:27;51.90;;;23.80;;
239;SDS011;104;53.590;10.004;2023-04-09T07:14:56;56.07;;;24.37;;
239;SDS011;104;53.590;10.004;2023-04-09T07:17:23;49.20;;;24.70;;
239;SDS011;104;53.590;10.004;2023-04-09T07:19:50;49.13;;;23.30;;
239;SDS011;104;53.590;10.004;2023-04-09T07:22:19;50.10;;;23.47;;
239;SDS011;104;53.590;10.004;2023-04-09T07:24:46;50.37;;;24.63;;
239;SDS011;104;53.590;10.004;2023-04-09T07:27:17;50.00;;;23.20;;
239;SDS011;104;53.590;10.004;2023-04-09T07:29:46;54.73;;;25.80;;
239;SDS011;104;53.590;10.004;2023-04-09T07:32:13;54.40;;;26.07;;
239;SDS011;104;53.590;10.004;2023-04-09T07:34:41;60.40;;;25.70;;
239;SDS011;104;53.590;10.004;2023-04-09T07:37:08;52.07;;;25.30;;
239;SDS011;104;53.590;10.004;2023-04-09T07:39:36;58.03;;;25.27;;
239;SDS011;104;53.590;10.004;2023-04-09T07:42:03;57.03;;;27.00;;
239;SDS011;104;53.590;10.004;2023-04-09T07:44:32;57.73;;;26.27;;
239;SDS011;104;53.590;10.004;2023-04-09T07:47:02;54.03;;;25.20;;
239;SDS011;104;53.590;10.004;2023-04-09T07:49:29;59.87;;;27.00;;
239;SDS011;104;53.590;10.004;2023-04-09T07:51:57;51.13;;;25.30;;
239;SDS011;104;53.590;10.004;2023-04-09T07:54:25;59.20;;;26.77;;
239;SDS011;104;53.590;10.004;2023-04-09T07:56:53;52.90;;;25.20;;
239;SDS011;104;53.590;10.004;2023-04-09T07:59:20;58.60;;;26.83;;
239;SDS011;104;53.590;10.004;2023-04-09T08:01:48;48.47;;;25.40;;
239;SDS011;104;53.590;10.004;2023-04-09T08:04:17;55.17;;;25.67;;
239;SDS011;104;53.590;10.004;2023-04-09T08:06:44;52.73;;;25.70;;
239;SDS011;104;53.590;10.004;2023-04-09T08:09:14;52.27;;;25.43;;
239;SDS011;104;53.590;10.004;2023-04-09T08:11:42;59.70;;;26.87;;
239;SDS011;104;53.590;10.004;2023-04-09T08:14:11;57.03;;;25.73;;
239;SDS011;104;53.590;10.004;2023-04-09T08:16:38;50.33;;;25.30;;
239;SDS011;104;53.590;10.004;2023-04-09T08:19:06;63.10;;;26.10;;
239;SDS011;104;53.590;10.004;2023-04-09T08:21:36;59.07;;;26.20;;
239;SDS011;104;53.590;10.004;2023-04-09T08:24:04;57.07;;;26.40;;
239;SDS011;104;53.590;10.004;2023-04-09T08:26:31;53.50;;;25.83;;
239;SDS011;104;53.590;10.004;2023-04-09T08:28:58;59.20;;;27.30;;
239;SDS011;104;53.590;10.004;2023-04-09T08:31:25;59.07;;;26.20;;
239;SDS011;104;53.590;10.004;2023-04-09T08:33:53;54.07;;;24.73;;
239;SDS011;104;53.590;10.004;2023-04-09T08:36:20;54.67;;;25.00;;
239;SDS011;104;53.590;10.004;2023-04-09T08:38:48;55.27;;;25.67;;
239;SDS011;104;53.590;10.004;2023-04-09T08:41:17;55.30;;;23.90;;
239;SDS011;104;53.590;10.004;2023-04-09T08:43:45;49.77;;;25.00;;
239;SDS011;104;53.590;10.004;2023-04-09T08:46:13;49.80;;;24.60;;
239;SDS011;104;53.590;10.004;2023-04-09T08:48:41;50.73;;;24.97;;
239;SDS011;104;53.590;10.004;2023-04-09T08:51:14;50.23;;;24.60;;
239;SDS011;104;53.590;10.004;2023-04-09T08:53:42;52.00;;;25.53;;
239;SDS011;104;53.590;10.004;2023-04-09T08:56:13;50.40;;;24.17;;
239;SDS011;104;53.590;10.004;2023-04-09T08:58:43;57.83;;;26.23;;
239;SDS011;104;53.590;10.004;2023-04-09T09:01:17;56.43;;;26.10;;
239;SDS011;104;53.590;10.004;2023-04-09T09:03:52;49.63;;;24.00;;
239;SDS011;104;53.590;10.004;2023-04-09T09:06:21;125.50;;;31.70;;
239;SDS011;104;53.590;10.004;2023-04-09T09:11:36;45.70;;;24.27;;
239;SDS011;104;53.590;10.004;2023-04-09T09:14:05;49.07;;;23.93;;
239;SDS011;104;53.590;10.004;2023-04-09T09:16:33;52.17;;;24.30;;
239;SDS011;104;53.590;10.004;2023-04-09T09:19:06;57.33;;;23.50;;
239;SDS011;104;53.590;10.004;2023-04-09T09:21:33;50.97;;;23.97;;
239;SDS011;104;53.590;10.004;2023-04-09T09:24:00;47.40;;;24.37;;
239;SDS011;104;53.590;10.004;2023-04-09T09:26:43;52.80;;;25.57;;
239;SDS011;104;53.590;10.004;2023-04-09T09:29:10;45.10;;;23.97;;
239;SDS011;104;53.590;10.004;2023-04-09T09:31:44;45.60;;;23.57;;
239;SDS011;104;53.590;10.004;2023-04-09T09:34:13;54.50;;;25.37;;
239;SDS011;104;53.590;10.004;2023-04-09T09:36:41;42.37;;;22.90;;
239;SDS011;104;53.590;10.004;2023-04-09T09:39:09;46.67;;;24.67;;
239;SDS011;104;53.590;10.004;2023-04-09T09:41:37;48.73;;;23.80;;
239;SDS011;104;53.590;10.004;2023-04-09T09:44:06;43.47;;;23.37;;
239;SDS011;104;53.590;10.004;2023-04-09T09:46:34;46.00;;;23.10;;
239;SDS011;104;53.590;10.004;2023-04-09T09:49:02;47.87;;;23.80;;
239;SDS011;104;53.590;10.004;2023-04-09T09:51:30;47.17;;;24.60;;
239;SDS011;104;53.590;10.004;2023-04-09T09:53:58;46.10;;;24.93;;
239;SDS011;104;53.590;10.004;2023-04-09T09:56:29;45.13;;;24.10;;
239;SDS011;104;53.590;10.004;2023-04-09T09:59:00;40.37;;;21.97;;
239;SDS011;104;53.590;10.004;2023-04-09T10:01:33;38.77;;;21.30;;
239;SDS011;104;53.590;10.004;2023-04-09T10:04:01;38.57;;;19.90;;
239;SDS011;104;53.590;10.004;2023-04-09T10:06:31;35.50;;;18.87;;
239;SDS011;104;53.590;10.004;2023-04-09T10:09:00;36.50;;;19.73;;
239;SDS011;104;53.590;10.004;2023-04-09T10:11:30;34.63;;;18.87;;
239;SDS011;104;53.590;10.004;2023-04-09T10:13:59;32.43;;;17.27;;
239;SDS011;104;53.590;10.004;2023-04-09T10:16:28;33.57;;;18.20;;
239;SDS011;104;53.590;10.004;2023-04-09T10:18:56;38.67;;;19.00;;
239;SDS011;104;53.590;10.004;2023-04-09T10:21:27;35.30;;;18.07;;
239;SDS011;104;53.590;10.004;2023-04-09T10:24:00;35.63;;;19.20;;
239;SDS011;104;53.590;10.004;2023-04-09T10:26:31;33.97;;;18.07;;
239;SDS011;104;53.590;10.004;2023-04-09T10:29:06;37.30;;;18.20;;
239;SDS011;104;53.590;10.004;2023-04-09T10:31:45;27.80;;;17.07;;
239;SDS011;104;53.590;10.004;2023-04-09T10:34:14;29.17;;;16.90;;
239;SDS011;104;53.590;10.004;2023-04-09T10:36:43;27.83;;;16.33;;
239;SDS011;104;53.590;10.004;2023-04-09T10:39:10;31.10;;;17.97;;
239;SDS011;104;53.590;10.004;2023-04-09T10:41:39;32.63;;;18.30;;
239;SDS011;104;53.590;10.004;2023-04-09T10:44:20;32.23;;;17.47;;
239;SDS011;104;53.590;10.004;2023-04-09T10:46:51;35.50;;;19.23;;
239;SDS011;104;53.590;10.004;2023-04-09T10:49:19;33.30;;;17.93;;
239;SDS011;104;53.590;10.004;2023-04-09T10:51:49;31.77;;;17.83;;
239;SDS011;104;53.590;10.004;2023-04-09T10:57:13;49.10;;;18.53;;
239;SDS011;104;53.590;10.004;2023-04-09T10:59:43;31.20;;;17.33;;
239;SDS011;104;53.590;10.004;2023-04-09T11:02:25;33.87;;;18.00;;
239;SDS011;104;53.590;10.004;2023-04-09T11:05:18;32.47;;;18.73;;
239;SDS011;104;53.590;10.004;2023-04-09T11:07:48;34.10;;;18.83;;
239;SDS011;104;53.590;10.004;2023-04-09T11:10:19;31.70;;;17.97;;
239;SDS011;104;53.590;10.004;2023-04-09T11:12:47;32.20;;;18.20;;
239;SDS011;104;53.590;10.004;2023-04-09T11:15:14;32.13;;;18.03;;
239;SDS011;104;53.590;10.004;2023-04-09T11:17:43;28.83;;;17.07;;
239;SDS011;104;53.590;10.004;2023-04-09T11:20:12;32.00;;;17.83;;
239;SDS011;104;53.590;10.004;2023-04-09T11:22:39;27.90;;;17.00;;
239;SDS011;104;53.590;10.004;2023-04-09T11:25:07;28.93;;;17.17;;
239;SDS011;104;53.590;10.004;2023-04-09T11:27:37;29.60;;;16.60;;
239;SDS011;104;53.590;10.004;2023-04-09T11:30:05;30.30;;;17.33;;
239;SDS011;104;53.590;10.004;2023-04-09T11:32:33;33.90;;;18.80;;
239;SDS011;104;53.590;10.004;2023-04-09T11:35:03;34.70;;;17.57;;
239;SDS011;104;53.590;10.004;2023-04-09T11:37:36;27.60;;;16.53;;
239;SDS011;104;53.590;10.004;2023-04-09T11:40:04;28.27;;;16.93;;
239;SDS011;104;53.590;10.004;2023-04-09T11:42:34;32.60;;;18.83;;
239;SDS011;104;53.590;10.004;2023-04-09T11:45:02;25.67;;;17.20;;
239;SDS011;104;53.590;10.004;2023-04-09T11:47:30;26.20;;;15.83;;
239;SDS011;104;53.590;10.004;2023-04-09T11:49:57;25.67;;;16.03;;
239;SDS011;104;53.590;10.004;2023-04-09T11:52:26;27.33;;;16.20;;
239;SDS011;104;53.590;10.004;2023-04-09T11:54:58;30.67;;;17.73;;
239;SDS011;104;53.590;10.004;2023-04-09T11:57:34;33.20;;;17.80;;
239;SDS011;104;53.590;10.004;2023-04-09T12:00:14;29.40;;;17.27;;
239;SDS011;104;53.590;10.004;2023-04-09T12:02:43;32.40;;;17.27;;
239;SDS011;104;53.590;10.004;2023-04-09T12:05:11;33.43;;;17.80;;
239;SDS011;104;53.590;10.004;2023-04-09T12:07:51;30.07;;;17.50;;
239;SDS011;104;53.590;10.004;2023-04-09T12:10:25;31.97;;;17.80;;
239;SDS011;104;53.590;10.004;2023-04-09T12:12:53;26.33;;;16.33;;
239;SDS011;104;53.590;10.004;2023-04-09T12:15:20;32.50;;;18.23;;
239;SDS011;104;53.590;10.004;2023-04-09T12:17:49;24.50;;;15.17;;
239;SDS011;104;53.590;10.004;2023-04-09T12:20:28;30.33;;;17.37;;
239;SDS011;104;53.590;10.004;2023-04-09T12:22:58;25.30;;;15.77;;
239;SDS011;104;53.590;10.004;2023-04-09T12:25:27;29.73;;;16.97;;
239;SDS011;104;53.590;10.004;2023-04-09T12:27:55;26.17;;;16.30;;
239;SDS011;104;53.590;10.004;2023-04-09T12:30:24;34.83;;;15.87;;
239;SDS011;104;53.590;10.004;2023-04-09T12:32:52;26.60;;;16.00;;
239;SDS011;104;53.590;10.004;2023-04-09T12:35:20;28.70;;;17.10;;
239;SDS011;104;53.590;10.004;2023-04-09T12:37:48;25.37;;;15.83;;
239;SDS011;104;53.590;10.004;2023-04-09T12:40:17;25.17;;;16.00;;
239;SDS011;104;53.590;10.004;2023-04-09T12:42:45;27.70;;;16.40;;
239;SDS011;104;53.590;10.004;2023-04-09T12:45:13;29.63;;;16.40;;
239;SDS011;104;53.590;10.004;2023-04-09T12:47:41;29.03;;;16.67;;
239;SDS011;104;53.590;10.004;2023-04-09T12:50:09;28.90;;;16.93;;
239;SDS011;104;53.590;10.004;2023-04-09T12:52:37;31.40;;;17.07;;
239;SDS011;104;53.590;10.004;2023-04-09T12:55:05;27.63;;;17.00;;
239;SDS011;104;53.590;10.004;2023-04-09T12:57:35;36.37;;;18.90;;
239;SDS011;104;53.590;10.004;2023-04-09T13:00:04;33.60;;;18.60;;
239;SDS011;104;53.590;10.004;2023-04-09T13:02:33;29.50;;;16.67;;
239;SDS011;104;53.590;10.004;2023-04-09T13:05:00;34.10;;;16.67;;
239;SDS011;104;53.590;10.004;2023-04-09T13:07:29;23.93;;;13.87;;
239;SDS011;104;53.590;10.004;2023-04-09T13:09:56;21.83;;;13.63;;
239;SDS011;104;53.590;10.004;2023-04-09T13:12:24;22.10;;;13.63;;
239;SDS011;104;53.590;10.004;2023-04-09T13:14:53;23.77;;;14.00;;
239;SDS011;104;53.590;10.004;2023-04-09T13:17:20;23.90;;;14.83;;
239;SDS011;104;53.590;10.004;2023-04-09T13:19:48;25.90;;;14.60;;
239;SDS011;104;53.590;10.004;2023-04-09T13:22:16;22.50;;;13.43;;
239;SDS011;104;53.590;10.004;2023-04-09T13:24:44;23.73;;;13.97;;
239;SDS011;104;53.590;10.004;2023-04-09T13:27:10;21.80;;;12.80;;
239;SDS011;104;53.590;10.004;2023-04-09T13:29:38;20.27;;;13.53;;
239;SDS011;104;53.590;10.004;2023-04-09T13:32:06;18.60;;;12.00;;
239;SDS011;104;53.590;10.004;2023-04-09T13:34:35;22.43;;;13.13;;
239;SDS011;104;53.590;10.004;2023-04-09T13:37:02;23.10;;;13.43;;
239;SDS011;104;53.590;10.004;2023-04-09T13:39:29;22.83;;;13.43;;
239;SDS011;104;53.590;10.004;2023-04-09T13:41:57;21.10;;;13.33;;
239;SDS011;104;53.590;10.004;2023-04-09T13:44:24;20.17;;;12.87;;
239;SDS011;104;53.590;10.004;2023-04-09T13:46:51;21.43;;;13.23;;
239;SDS011;104;53.590;10.004;2023-04-09T13:49:20;22.23;;;13.40;;
239;SDS011;104;53.590;10.004;2023-04-09T13:51:47;23.67;;;13.30;;
239;SDS011;104;53.590;10.004;2023-04-09T13:54:15;20.53;;;12.57;;
239;SDS011;104;53.590;10.004;2023-04-09T13:56:42;19.03;;;12.27;;
239;SDS011;104;53.590;10.004;2023-04-09T13:59:10;25.00;;;13.23;;
239;SDS011;104;53.590;10.004;2023-04-09T14:01:37;20.00;;;12.40;;
239;SDS011;104;53.590;10.004;2023-04-09T14:04:04;19.40;;;12.40;;
239;SDS011;104;53.590;10.004;2023-04-09T14:06:33;21.07;;;12.60;;
239;SDS011;104;53.590;10.004;2023-04-09T14:09:00;23.90;;;13.13;;
239;SDS011;104;53.590;10.004;2023-04-09T14:11:27;20.10;;;12.20;;
239;SDS011;104;53.590;10.004;2023-04-09T14:13:54;21.30;;;12.77;;
239;SDS011;104;53.590;10.004;2023-04-09T14:16:22;22.63;;;13.47;;
239;SDS011;104;53.590;10.004;2023-04-09T14:18:49;20.23;;;13.10;;
239;SDS011;104;53.590;10.004;2023-04-09T14:21:17;24.43;;;14.00;;
239;SDS011;104;53.590;10.004;2023-04-09T14:23:45;22.53;;;13.20;;
239;SDS011;104;53.590;10.004;2023-04-09T14:26:12;25.57;;;13.80;;
239;SDS011;104;53.590;10.004;2023-04-09T14:28:40;22.20;;;13.40;;
239;SDS011;104;53.590;10.004;2023-04-09T14:31:08;20.60;;;12.87;;
239;SDS011;104;53.590;10.004;2023-04-09T14:33:35;26.20;;;13.43;;
239;SDS011;104;53.590;10.004;2023-04-09T14:36:02;25.50;;;13.83;;
239;SDS011;104;53.590;10.004;2023-04-09T14:38:30;23.07;;;13.23;;
239;SDS011;104;53.590;10.004;2023-04-09T14:40:58;22.47;;;13.70;;
239;SDS011;104;53.590;10.004;2023-04-09T14:43:26;21.73;;;12.83;;
239;SDS011;104;53.590;10.004;2023-04-09T14:45:53;25.87;;;14.17;;
239;SDS011;104;53.590;10.004;2023-04-09T14:48:20;22.80;;;13.33;;
239;SDS011;104;53.590;10.004;2023-04-09T14:50:48;23.00;;;13.40;;
239;SDS011;104;53.590;10.004;2023-04-09T14:53:15;28.33;;;13.80;;
239;SDS011;104;53.590;10.004;2023-04-09T14:55:43;23.50;;;13.23;;
239;SDS011;104;53.590;10.004;2023-04-09T14:58:11;24.23;;;13.93;;
239;SDS011;104;53.590;10.004;2023-04-09T15:00:38;27.77;;;14.03;;
239;SDS011;104;53.590;10.004;2023-04-09T15:03:08;25.13;;;13.47;;
239;SDS011;104;53.590;10.004;2023-04-09T15:05:35;22.40;;;12.70;;
239;SDS011;104;53.590;10.004;2023-04-09T15:08:06;27.17;;;13.37;;
239;SDS011;104;53.590;10.004;2023-04-09T15:10:34;22.37;;;13.53;;
239;SDS011;104;53.590;10.004;2023-04-09T15:13:01;23.40;;;12.77;;